sensor_id;sensor_type;location;lat;lon;timestamp;P1;durP1;ratioP1;P2;durP2;ratioP2
49177;SDS011;35016;55.674;37.468;2023-04-21T00:02:14;8.57;;;3.33;;
49177;SDS011;35016;55.674;37.468;2023-04-21T00:04:41;8.00;;;3.40;;
49177;SDS011;35016;55.674;37.468;2023-04-21T00:07:11;11.63;;;3.95;;
49177;SDS011;35016;55.674;37.468;2023-04-21T00:09:40;7.32;;;2.65;;
49177;SDS011;35016;55.674;37.468;2023-04-21T00:12:07;6.93;;;2.83;;
49177;SDS011;35016;55.674;37.468;2023-04-21T00:14:34;8.18;;;2.83;;
49177;SDS011;35016;55.674;37.468;2023-04-21T00:17:01;7.88;;;2.70;;
49177;SDS011;35016;55.674;37.468;2023-04-21T00:19:28;5.97;;;2.58;;
49177;SDS011;35016;55.674;37.468;2023-04-21T00:21:56;8.85;;;3.22;;
49177;SDS011;35016;55.674;37.468;2023-04-21T00:24:27;7.25;;;2.60;;
49177;SDS011;35016;55.674;37.468;2023-04-21T00:26:54;7.88;;;3.25;;
49177;SDS011;35016;55.674;37.468;2023-04-21T00:29:21;5.78;;;2.03;;
49177;SDS011;35016;55.674;37.468;2023-04-21T00:31:48;7.22;;;2.90;;
49177;SDS011;35016;55.674;37.468;2023-04-21T00:34:15;9.60;;;3.53;;
49177;SDS011;35016;55.674;37.468;2023-04-21T00:36:43;7.70;;;3.03;;
49177;SDS011;35016;55.674;37.468;2023-04-21T00:39:11;10.30;;;3.33;;
49177;SDS011;35016;55.674;37.468;2023-04-21T00:41:38;8.20;;;3.28;;
49177;SDS011;35016;55.674;37.468;2023-04-21T00:44:07;9.07;;;3.72;;
49177;SDS011;35016;55.674;37.468;2023-04-21T00:46:36;8.23;;;2.88;;
49177;SDS011;35016;55.674;37.468;2023-04-21T00:49:05;8.82;;;3.28;;
49177;SDS011;35016;55.674;37.468;2023-04-21T00:51:34;8.75;;;4.72;;
49177;SDS011;35016;55.674;37.468;2023-04-21T00:54:05;10.93;;;4.00;;
49177;SDS011;35016;55.674;37.468;2023-04-21T00:56:34;7.60;;;3.28;;
49177;SDS011;35016;55.674;37.468;2023-04-21T00:59:02;8.55;;;3.65;;
49177;SDS011;35016;55.674;37.468;2023-04-21T01:01:30;9.25;;;4.00;;
49177;SDS011;35016;55.674;37.468;2023-04-21T01:03:58;9.38;;;3.67;;
49177;SDS011;35016;55.674;37.468;2023-04-21T01:06:31;9.07;;;3.40;;
49177;SDS011;35016;55.674;37.468;2023-04-21T01:09:02;9.35;;;3.83;;
49177;SDS011;35016;55.674;37.468;2023-04-21T01:11:34;9.20;;;3.72;;
49177;SDS011;35016;55.674;37.468;2023-04-21T01:14:02;10.45;;;4.05;;
49177;SDS011;35016;55.674;37.468;2023-04-21T01:16:29;8.80;;;4.15;;
49177;SDS011;35016;55.674;37.468;2023-04-21T01:18:59;10.15;;;4.07;;
49177;SDS011;35016;55.674;37.468;2023-04-21T01:21:27;10.23;;;4.28;;
49177;SDS011;35016;55.674;37.468;2023-04-21T01:23:54;10.05;;;3.80;;
49177;SDS011;35016;55.674;37.468;2023-04-21T01:26:22;9.82;;;3.80;;
49177;SDS011;35016;55.674;37.468;2023-04-21T01:28:49;9.52;;;3.45;;
49177;SDS011;35016;55.674;37.468;2023-04-21T01:31:16;9.20;;;4.35;;
49177;SDS011;35016;55.674;37.468;2023-04-21T01:33:44;9.88;;;4.05;;
49177;SDS011;35016;55.674;37.468;2023-04-21T01:36:11;9.13;;;3.90;;
49177;SDS011;35016;55.674;37.468;2023-04-21T01:38:39;8.40;;;3.95;;
49177;SDS011;35016;55.674;37.468;2023-04-21T01:41:07;11.43;;;4.05;;
49177;SDS011;35016;55.674;37.468;2023-04-21T01:43:35;14.30;;;4.47;;
49177;SDS011;35016;55.674;37.468;2023-04-21T01:46:03;10.18;;;3.50;;
49177;SDS011;35016;55.674;37.468;2023-04-21T01:48:31;10.95;;;4.15;;
49177;SDS011;35016;55.674;37.468;2023-04-21T01:50:58;8.45;;;3.47;;
49177;SDS011;35016;55.674;37.468;2023-04-21T01:53:25;11.85;;;4.07;;
49177;SDS011;35016;55.674;37.468;2023-04-21T01:55:52;9.20;;;3.63;;
49177;SDS011;35016;55.674;37.468;2023-04-21T01:58:20;8.68;;;3.42;;
49177;SDS011;35016;55.674;37.468;2023-04-21T02:00:47;8.80;;;4.05;;
49177;SDS011;35016;55.674;37.468;2023-04-21T02:03:15;8.68;;;3.17;;
49177;SDS011;35016;55.674;37.468;2023-04-21T02:05:44;9.02;;;4.00;;
49177;SDS011;35016;55.674;37.468;2023-04-21T02:08:11;10.88;;;3.33;;
49177;SDS011;35016;55.674;37.468;2023-04-21T02:10:39;8.90;;;3.55;;
49177;SDS011;35016;55.674;37.468;2023-04-21T02:13:10;8.35;;;3.67;;
49177;SDS011;35016;55.674;37.468;2023-04-21T02:15:37;9.73;;;4.18;;
49177;SDS011;35016;55.674;37.468;2023-04-21T02:18:05;9.25;;;3.97;;
49177;SDS011;35016;55.674;37.468;2023-04-21T02:20:33;7.72;;;3.15;;
49177;SDS011;35016;55.674;37.468;2023-04-21T02:23:01;6.53;;;2.70;;
49177;SDS011;35016;55.674;37.468;2023-04-21T02:25:28;9.13;;;3.20;;
49177;SDS011;35016;55.674;37.468;2023-04-21T02:27:56;7.97;;;3.00;;
49177;SDS011;35016;55.674;37.468;2023-04-21T02:30:25;9.23;;;3.00;;
49177;SDS011;35016;55.674;37.468;2023-04-21T02:32:53;6.65;;;2.88;;
49177;SDS011;35016;55.674;37.468;2023-04-21T02:35:20;9.07;;;3.47;;
49177;SDS011;35016;55.674;37.468;2023-04-21T02:37:49;13.15;;;4.40;;
49177;SDS011;35016;55.674;37.468;2023-04-21T02:40:16;8.98;;;2.55;;
49177;SDS011;35016;55.674;37.468;2023-04-21T02:42:43;7.07;;;2.90;;
49177;SDS011;35016;55.674;37.468;2023-04-21T02:45:10;9.40;;;3.05;;
49177;SDS011;35016;55.674;37.468;2023-04-21T02:47:37;8.05;;;3.42;;
49177;SDS011;35016;55.674;37.468;2023-04-21T02:50:04;8.93;;;3.50;;
49177;SDS011;35016;55.674;37.468;2023-04-21T02:52:35;7.68;;;3.00;;
49177;SDS011;35016;55.674;37.468;2023-04-21T02:55:03;8.10;;;2.95;;
49177;SDS011;35016;55.674;37.468;2023-04-21T02:57:31;6.72;;;2.72;;
49177;SDS011;35016;55.674;37.468;2023-04-21T02:59:58;7.72;;;2.80;;
49177;SDS011;35016;55.674;37.468;2023-04-21T03:02:25;8.05;;;2.72;;
49177;SDS011;35016;55.674;37.468;2023-04-21T03:04:53;8.50;;;3.05;;
49177;SDS011;35016;55.674;37.468;2023-04-21T03:07:20;8.25;;;3.53;;
49177;SDS011;35016;55.674;37.468;2023-04-21T03:09:47;8.88;;;3.67;;
49177;SDS011;35016;55.674;37.468;2023-04-21T03:12:14;8.85;;;3.50;;
49177;SDS011;35016;55.674;37.468;2023-04-21T03:14:42;8.82;;;3.35;;
49177;SDS011;35016;55.674;37.468;2023-04-21T03:17:10;7.78;;;2.75;;
49177;SDS011;35016;55.674;37.468;2023-04-21T03:19:37;8.60;;;3.40;;
49177;SDS011;35016;55.674;37.468;2023-04-21T03:22:04;8.65;;;3.42;;
49177;SDS011;35016;55.674;37.468;2023-04-21T03:24:32;7.47;;;2.40;;
49177;SDS011;35016;55.674;37.468;2023-04-21T03:26:59;8.13;;;3.95;;
49177;SDS011;35016;55.674;37.468;2023-04-21T03:29:28;8.63;;;3.67;;
49177;SDS011;35016;55.674;37.468;2023-04-21T03:31:55;8.00;;;3.72;;
49177;SDS011;35016;55.674;37.468;2023-04-21T03:34:23;12.23;;;4.38;;
49177;SDS011;35016;55.674;37.468;2023-04-21T03:36:50;9.18;;;4.00;;
49177;SDS011;35016;55.674;37.468;2023-04-21T03:39:17;9.50;;;3.58;;
49177;SDS011;35016;55.674;37.468;2023-04-21T03:41:47;8.52;;;3.40;;
49177;SDS011;35016;55.674;37.468;2023-04-21T03:44:14;9.45;;;3.00;;
49177;SDS011;35016;55.674;37.468;2023-04-21T03:46:42;8.80;;;3.28;;
49177;SDS011;35016;55.674;37.468;2023-04-21T03:49:09;8.60;;;3.58;;
49177;SDS011;35016;55.674;37.468;2023-04-21T03:51:36;8.77;;;3.58;;
49177;SDS011;35016;55.674;37.468;2023-04-21T03:54:03;8.02;;;3.30;;
49177;SDS011;35016;55.674;37.468;2023-04-21T03:56:30;9.27;;;3.50;;
49177;SDS011;35016;55.674;37.468;2023-04-21T03:58:57;8.60;;;3.38;;
49177;SDS011;35016;55.674;37.468;2023-04-21T04:01:24;9.00;;;3.45;;
49177;SDS011;35016;55.674;37.468;2023-04-21T04:03:52;10.18;;;4.82;;
49177;SDS011;35016;55.674;37.468;2023-04-21T04:06:19;9.30;;;3.28;;
49177;SDS011;35016;55.674;37.468;2023-04-21T04:08:46;8.80;;;3.88;;
49177;SDS011;35016;55.674;37.468;2023-04-21T04:11:13;8.00;;;3.35;;
49177;SDS011;35016;55.674;37.468;2023-04-21T04:13:40;12.18;;;4.18;;
49177;SDS011;35016;55.674;37.468;2023-04-21T04:16:07;14.15;;;4.15;;
49177;SDS011;35016;55.674;37.468;2023-04-21T04:18:34;7.60;;;4.30;;
49177;SDS011;35016;55.674;37.468;2023-04-21T04:21:05;10.50;;;3.72;;
49177;SDS011;35016;55.674;37.468;2023-04-21T04:23:35;9.25;;;3.92;;
49177;SDS011;35016;55.674;37.468;2023-04-21T04:26:02;14.40;;;4.18;;
49177;SDS011;35016;55.674;37.468;2023-04-21T04:28:32;9.80;;;4.50;;
49177;SDS011;35016;55.674;37.468;2023-04-21T04:31:00;9.13;;;3.90;;
49177;SDS011;35016;55.674;37.468;2023-04-21T04:33:28;13.38;;;3.88;;
49177;SDS011;35016;55.674;37.468;2023-04-21T04:35:56;10.48;;;3.70;;
49177;SDS011;35016;55.674;37.468;2023-04-21T04:38:23;10.00;;;3.55;;
49177;SDS011;35016;55.674;37.468;2023-04-21T04:40:54;11.95;;;3.97;;
49177;SDS011;35016;55.674;37.468;2023-04-21T04:43:23;9.68;;;3.92;;
49177;SDS011;35016;55.674;37.468;2023-04-21T04:45:51;7.63;;;3.80;;
49177;SDS011;35016;55.674;37.468;2023-04-21T04:48:18;11.43;;;4.03;;
49177;SDS011;35016;55.674;37.468;2023-04-21T04:50:45;9.30;;;3.42;;
49177;SDS011;35016;55.674;37.468;2023-04-21T04:53:12;8.07;;;3.25;;
49177;SDS011;35016;55.674;37.468;2023-04-21T04:55:39;9.52;;;3.92;;
49177;SDS011;35016;55.674;37.468;2023-04-21T04:58:06;7.88;;;3.38;;
49177;SDS011;35016;55.674;37.468;2023-04-21T05:00:33;10.52;;;3.15;;
49177;SDS011;35016;55.674;37.468;2023-04-21T05:03:02;7.80;;;3.20;;
49177;SDS011;35016;55.674;37.468;2023-04-21T05:05:29;8.23;;;3.05;;
49177;SDS011;35016;55.674;37.468;2023-04-21T05:07:56;8.18;;;3.70;;
49177;SDS011;35016;55.674;37.468;2023-04-21T05:10:24;10.30;;;3.25;;
49177;SDS011;35016;55.674;37.468;2023-04-21T05:12:51;7.15;;;2.85;;
49177;SDS011;35016;55.674;37.468;2023-04-21T05:15:18;9.85;;;3.55;;
49177;SDS011;35016;55.674;37.468;2023-04-21T05:17:45;9.73;;;2.83;;
49177;SDS011;35016;55.674;37.468;2023-04-21T05:20:12;9.65;;;3.55;;
49177;SDS011;35016;55.674;37.468;2023-04-21T05:22:39;9.25;;;3.22;;
49177;SDS011;35016;55.674;37.468;2023-04-21T05:25:07;8.32;;;3.00;;
49177;SDS011;35016;55.674;37.468;2023-04-21T05:27:36;10.52;;;3.22;;
49177;SDS011;35016;55.674;37.468;2023-04-21T05:30:03;6.30;;;2.88;;
49177;SDS011;35016;55.674;37.468;2023-04-21T05:32:31;7.97;;;3.58;;
49177;SDS011;35016;55.674;37.468;2023-04-21T05:34:58;6.25;;;3.17;;
49177;SDS011;35016;55.674;37.468;2023-04-21T05:37:25;7.97;;;3.20;;
49177;SDS011;35016;55.674;37.468;2023-04-21T05:39:52;7.30;;;3.05;;
49177;SDS011;35016;55.674;37.468;2023-04-21T05:42:19;7.03;;;2.85;;
49177;SDS011;35016;55.674;37.468;2023-04-21T05:44:47;9.77;;;3.13;;
49177;SDS011;35016;55.674;37.468;2023-04-21T05:47:14;11.77;;;3.35;;
49177;SDS011;35016;55.674;37.468;2023-04-21T05:49:41;8.57;;;2.72;;
49177;SDS011;35016;55.674;37.468;2023-04-21T05:52:15;8.02;;;3.50;;
49177;SDS011;35016;55.674;37.468;2023-04-21T05:54:43;9.70;;;4.22;;
49177;SDS011;35016;55.674;37.468;2023-04-21T05:57:10;8.63;;;3.78;;
49177;SDS011;35016;55.674;37.468;2023-04-21T05:59:37;8.50;;;3.97;;
49177;SDS011;35016;55.674;37.468;2023-04-21T06:02:04;7.85;;;2.92;;
49177;SDS011;35016;55.674;37.468;2023-04-21T06:04:32;9.85;;;3.35;;
49177;SDS011;35016;55.674;37.468;2023-04-21T06:07:08;8.20;;;2.88;;
49177;SDS011;35016;55.674;37.468;2023-04-21T06:09:39;6.68;;;2.97;;
49177;SDS011;35016;55.674;37.468;2023-04-21T06:12:06;6.00;;;2.42;;
49177;SDS011;35016;55.674;37.468;2023-04-21T06:14:33;8.48;;;2.55;;
49177;SDS011;35016;55.674;37.468;2023-04-21T06:17:00;6.93;;;2.05;;
49177;SDS011;35016;55.674;37.468;2023-04-21T06:19:27;7.18;;;2.45;;
49177;SDS011;35016;55.674;37.468;2023-04-21T06:21:55;10.25;;;2.13;;
49177;SDS011;35016;55.674;37.468;2023-04-21T06:24:22;4.38;;;1.80;;
49177;SDS011;35016;55.674;37.468;2023-04-21T06:26:52;5.95;;;1.67;;
49177;SDS011;35016;55.674;37.468;2023-04-21T06:29:19;6.00;;;1.83;;
49177;SDS011;35016;55.674;37.468;2023-04-21T06:31:46;5.68;;;1.90;;
49177;SDS011;35016;55.674;37.468;2023-04-21T06:34:14;6.47;;;2.08;;
49177;SDS011;35016;55.674;37.468;2023-04-21T06:36:41;7.00;;;2.03;;
49177;SDS011;35016;55.674;37.468;2023-04-21T06:39:08;8.60;;;2.40;;
49177;SDS011;35016;55.674;37.468;2023-04-21T06:41:35;8.45;;;1.92;;
49177;SDS011;35016;55.674;37.468;2023-04-21T06:44:02;7.47;;;2.17;;
49177;SDS011;35016;55.674;37.468;2023-04-21T06:46:29;6.30;;;1.88;;
49177;SDS011;35016;55.674;37.468;2023-04-21T06:48:56;5.65;;;1.90;;
49177;SDS011;35016;55.674;37.468;2023-04-21T06:51:24;7.60;;;2.47;;
49177;SDS011;35016;55.674;37.468;2023-04-21T06:53:51;7.07;;;2.17;;
49177;SDS011;35016;55.674;37.468;2023-04-21T06:56:18;7.47;;;2.40;;
49177;SDS011;35016;55.674;37.468;2023-04-21T06:58:45;8.85;;;2.50;;
49177;SDS011;35016;55.674;37.468;2023-04-21T07:01:12;9.38;;;2.70;;
49177;SDS011;35016;55.674;37.468;2023-04-21T07:03:41;8.38;;;2.63;;
49177;SDS011;35016;55.674;37.468;2023-04-21T07:06:08;7.18;;;2.83;;
49177;SDS011;35016;55.674;37.468;2023-04-21T07:08:36;7.90;;;3.03;;
49177;SDS011;35016;55.674;37.468;2023-04-21T07:11:03;5.72;;;2.47;;
49177;SDS011;35016;55.674;37.468;2023-04-21T07:13:30;9.85;;;3.08;;
49177;SDS011;35016;55.674;37.468;2023-04-21T07:15:58;5.47;;;2.08;;
49177;SDS011;35016;55.674;37.468;2023-04-21T07:18:25;7.55;;;2.38;;
49177;SDS011;35016;55.674;37.468;2023-04-21T07:20:52;8.70;;;2.70;;
49177;SDS011;35016;55.674;37.468;2023-04-21T07:23:20;8.98;;;2.80;;
49177;SDS011;35016;55.674;37.468;2023-04-21T07:25:47;7.43;;;2.53;;
49177;SDS011;35016;55.674;37.468;2023-04-21T07:28:14;7.45;;;2.38;;
49177;SDS011;35016;55.674;37.468;2023-04-21T07:30:41;13.00;;;2.67;;
49177;SDS011;35016;55.674;37.468;2023-04-21T07:33:12;9.00;;;2.17;;
49177;SDS011;35016;55.674;37.468;2023-04-21T07:35:39;9.52;;;2.80;;
49177;SDS011;35016;55.674;37.468;2023-04-21T07:38:10;8.27;;;2.50;;
49177;SDS011;35016;55.674;37.468;2023-04-21T07:40:37;7.28;;;2.28;;
49177;SDS011;35016;55.674;37.468;2023-04-21T07:43:04;5.78;;;2.28;;
49177;SDS011;35016;55.674;37.468;2023-04-21T07:45:31;11.40;;;2.67;;
49177;SDS011;35016;55.674;37.468;2023-04-21T07:47:58;7.70;;;2.75;;
49177;SDS011;35016;55.674;37.468;2023-04-21T07:50:28;7.70;;;2.85;;
49177;SDS011;35016;55.674;37.468;2023-04-21T07:52:58;10.32;;;2.95;;
49177;SDS011;35016;55.674;37.468;2023-04-21T07:55:27;4.38;;;1.73;;
49177;SDS011;35016;55.674;37.468;2023-04-21T07:57:55;7.63;;;2.40;;
49177;SDS011;35016;55.674;37.468;2023-04-21T08:00:22;7.43;;;2.60;;
49177;SDS011;35016;55.674;37.468;2023-04-21T08:02:51;4.32;;;1.73;;
49177;SDS011;35016;55.674;37.468;2023-04-21T08:05:19;8.85;;;2.20;;
49177;SDS011;35016;55.674;37.468;2023-04-21T08:07:46;7.65;;;2.42;;
49177;SDS011;35016;55.674;37.468;2023-04-21T08:10:13;6.03;;;1.90;;
49177;SDS011;35016;55.674;37.468;2023-04-21T08:12:40;7.57;;;2.13;;
49177;SDS011;35016;55.674;37.468;2023-04-21T08:15:07;7.28;;;2.47;;
49177;SDS011;35016;55.674;37.468;2023-04-21T08:17:34;6.50;;;2.15;;
49177;SDS011;35016;55.674;37.468;2023-04-21T08:20:01;8.43;;;2.47;;
49177;SDS011;35016;55.674;37.468;2023-04-21T08:22:29;5.93;;;2.13;;
49177;SDS011;35016;55.674;37.468;2023-04-21T08:25:02;6.80;;;2.08;;
49177;SDS011;35016;55.674;37.468;2023-04-21T08:27:30;5.75;;;2.08;;
49177;SDS011;35016;55.674;37.468;2023-04-21T08:29:57;6.10;;;2.28;;
49177;SDS011;35016;55.674;37.468;2023-04-21T08:32:25;7.70;;;1.58;;
49177;SDS011;35016;55.674;37.468;2023-04-21T08:34:55;6.43;;;2.50;;
49177;SDS011;35016;55.674;37.468;2023-04-21T08:37:22;5.63;;;1.75;;
49177;SDS011;35016;55.674;37.468;2023-04-21T08:39:49;5.43;;;1.42;;
49177;SDS011;35016;55.674;37.468;2023-04-21T08:42:16;6.93;;;2.47;;
49177;SDS011;35016;55.674;37.468;2023-04-21T08:44:44;6.40;;;1.95;;
49177;SDS011;35016;55.674;37.468;2023-04-21T08:47:12;6.78;;;1.85;;
49177;SDS011;35016;55.674;37.468;2023-04-21T08:49:41;4.30;;;1.27;;
49177;SDS011;35016;55.674;37.468;2023-04-21T08:52:11;6.30;;;1.70;;
49177;SDS011;35016;55.674;37.468;2023-04-21T08:54:39;5.10;;;1.80;;
49177;SDS011;35016;55.674;37.468;2023-04-21T08:57:07;7.63;;;1.70;;
49177;SDS011;35016;55.674;37.468;2023-04-21T08:59:41;3.95;;;1.42;;
49177;SDS011;35016;55.674;37.468;2023-04-21T09:02:15;5.80;;;2.05;;
49177;SDS011;35016;55.674;37.468;2023-04-21T09:04:45;5.95;;;2.10;;
49177;SDS011;35016;55.674;37.468;2023-04-21T09:07:36;8.40;;;1.80;;
49177;SDS011;35016;55.674;37.468;2023-04-21T09:10:03;7.15;;;2.10;;
49177;SDS011;35016;55.674;37.468;2023-04-21T09:12:31;10.52;;;2.25;;
49177;SDS011;35016;55.674;37.468;2023-04-21T09:14:58;5.20;;;1.77;;
49177;SDS011;35016;55.674;37.468;2023-04-21T09:17:31;5.68;;;1.60;;
49177;SDS011;35016;55.674;37.468;2023-04-21T09:20:16;6.75;;;1.80;;
49177;SDS011;35016;55.674;37.468;2023-04-21T09:22:46;7.00;;;2.00;;
49177;SDS011;35016;55.674;37.468;2023-04-21T09:25:15;6.72;;;2.38;;
49177;SDS011;35016;55.674;37.468;2023-04-21T09:27:45;7.47;;;2.05;;
49177;SDS011;35016;55.674;37.468;2023-04-21T09:30:12;4.68;;;1.67;;
49177;SDS011;35016;55.674;37.468;2023-04-21T09:32:44;3.70;;;1.23;;
49177;SDS011;35016;55.674;37.468;2023-04-21T09:35:11;6.93;;;2.03;;
49177;SDS011;35016;55.674;37.468;2023-04-21T09:37:38;7.05;;;1.88;;
49177;SDS011;35016;55.674;37.468;2023-04-21T09:40:11;6.38;;;2.13;;
49177;SDS011;35016;55.674;37.468;2023-04-21T09:42:40;5.88;;;2.00;;
49177;SDS011;35016;55.674;37.468;2023-04-21T09:45:10;5.05;;;1.75;;
49177;SDS011;35016;55.674;37.468;2023-04-21T09:47:42;7.03;;;1.60;;
49177;SDS011;35016;55.674;37.468;2023-04-21T09:50:13;5.32;;;1.63;;
49177;SDS011;35016;55.674;37.468;2023-04-21T09:52:42;5.45;;;1.60;;
49177;SDS011;35016;55.674;37.468;2023-04-21T09:55:10;6.10;;;1.77;;
49177;SDS011;35016;55.674;37.468;2023-04-21T09:57:40;4.82;;;1.40;;
49177;SDS011;35016;55.674;37.468;2023-04-21T10:00:09;5.38;;;1.73;;
49177;SDS011;35016;55.674;37.468;2023-04-21T10:02:56;7.72;;;2.28;;
49177;SDS011;35016;55.674;37.468;2023-04-21T10:05:26;4.95;;;1.40;;
49177;SDS011;35016;55.674;37.468;2023-04-21T10:07:54;5.97;;;1.70;;
49177;SDS011;35016;55.674;37.468;2023-04-21T10:10:23;6.30;;;1.70;;
49177;SDS011;35016;55.674;37.468;2023-04-21T10:12:54;5.57;;;1.80;;
49177;SDS011;35016;55.674;37.468;2023-04-21T10:15:27;6.00;;;1.88;;
49177;SDS011;35016;55.674;37.468;2023-04-21T10:18:09;5.75;;;1.70;;
49177;SDS011;35016;55.674;37.468;2023-04-21T10:20:55;6.82;;;1.52;;
49177;SDS011;35016;55.674;37.468;2023-04-21T10:28:40;9.88;;;2.13;;
49177;SDS011;35016;55.674;37.468;2023-04-21T10:31:15;6.47;;;1.42;;
49177;SDS011;35016;55.674;37.468;2023-04-21T10:36:34;6.10;;;1.35;;
49177;SDS011;35016;55.674;37.468;2023-04-21T10:39:23;4.60;;;1.63;;
49177;SDS011;35016;55.674;37.468;2023-04-21T10:41:51;3.97;;;1.73;;
49177;SDS011;35016;55.674;37.468;2023-04-21T10:44:21;3.97;;;1.50;;
49177;SDS011;35016;55.674;37.468;2023-04-21T10:46:49;6.72;;;2.17;;
49177;SDS011;35016;55.674;37.468;2023-04-21T10:49:28;7.70;;;1.73;;
49177;SDS011;35016;55.674;37.468;2023-04-21T10:52:02;4.95;;;1.75;;
49177;SDS011;35016;55.674;37.468;2023-04-21T10:57:14;6.25;;;1.80;;
49177;SDS011;35016;55.674;37.468;2023-04-21T10:59:45;16.00;;;2.13;;
49177;SDS011;35016;55.674;37.468;2023-04-21T11:02:18;6.45;;;1.65;;
49177;SDS011;35016;55.674;37.468;2023-04-21T11:04:51;6.75;;;1.55;;
49177;SDS011;35016;55.674;37.468;2023-04-21T11:07:24;6.25;;;2.15;;
49177;SDS011;35016;55.674;37.468;2023-04-21T11:09:57;8.93;;;1.83;;
49177;SDS011;35016;55.674;37.468;2023-04-21T11:12:31;10.70;;;2.25;;
49177;SDS011;35016;55.674;37.468;2023-04-21T11:15:10;6.22;;;1.98;;
49177;SDS011;35016;55.674;37.468;2023-04-21T11:17:43;6.30;;;1.45;;
49177;SDS011;35016;55.674;37.468;2023-04-21T11:20:12;7.25;;;1.95;;
49177;SDS011;35016;55.674;37.468;2023-04-21T11:22:39;5.53;;;1.92;;
49177;SDS011;35016;55.674;37.468;2023-04-21T11:25:15;5.13;;;1.35;;
49177;SDS011;35016;55.674;37.468;2023-04-21T11:27:54;4.90;;;1.63;;
49177;SDS011;35016;55.674;37.468;2023-04-21T11:30:29;3.53;;;1.38;;
49177;SDS011;35016;55.674;37.468;2023-04-21T11:33:00;2.95;;;0.90;;
49177;SDS011;35016;55.674;37.468;2023-04-21T11:35:27;5.20;;;1.38;;
49177;SDS011;35016;55.674;37.468;2023-04-21T11:37:55;4.13;;;1.40;;
49177;SDS011;35016;55.674;37.468;2023-04-21T11:40:22;5.28;;;1.40;;
49177;SDS011;35016;55.674;37.468;2023-04-21T11:42:49;4.80;;;1.88;;
49177;SDS011;35016;55.674;37.468;2023-04-21T11:45:17;5.45;;;1.50;;
49177;SDS011;35016;55.674;37.468;2023-04-21T11:47:47;3.85;;;1.40;;
49177;SDS011;35016;55.674;37.468;2023-04-21T11:50:36;9.55;;;1.73;;
49177;SDS011;35016;55.674;37.468;2023-04-21T11:53:04;6.55;;;1.75;;
49177;SDS011;35016;55.674;37.468;2023-04-21T11:55:32;3.83;;;1.17;;
49177;SDS011;35016;55.674;37.468;2023-04-21T11:58:00;3.67;;;0.98;;
49177;SDS011;35016;55.674;37.468;2023-04-21T12:00:29;5.00;;;1.42;;
49177;SDS011;35016;55.674;37.468;2023-04-21T12:02:59;6.53;;;1.63;;
49177;SDS011;35016;55.674;37.468;2023-04-21T12:05:33;4.82;;;1.42;;
49177;SDS011;35016;55.674;37.468;2023-04-21T12:08:01;3.67;;;1.40;;
49177;SDS011;35016;55.674;37.468;2023-04-21T12:10:31;3.92;;;1.35;;
49177;SDS011;35016;55.674;37.468;2023-04-21T12:12:58;4.22;;;1.17;;
49177;SDS011;35016;55.674;37.468;2023-04-21T12:15:25;8.75;;;1.73;;
49177;SDS011;35016;55.674;37.468;2023-04-21T12:17:56;7.72;;;1.50;;
49177;SDS011;35016;55.674;37.468;2023-04-21T12:20:24;3.30;;;1.17;;
49177;SDS011;35016;55.674;37.468;2023-04-21T12:22:54;3.70;;;1.42;;
49177;SDS011;35016;55.674;37.468;2023-04-21T12:25:22;4.00;;;1.05;;
49177;SDS011;35016;55.674;37.468;2023-04-21T12:27:50;4.43;;;1.25;;
49177;SDS011;35016;55.674;37.468;2023-04-21T12:30:19;5.10;;;1.45;;
49177;SDS011;35016;55.674;37.468;2023-04-21T12:32:47;4.90;;;1.33;;
49177;SDS011;35016;55.674;37.468;2023-04-21T12:35:14;3.13;;;1.10;;
49177;SDS011;35016;55.674;37.468;2023-04-21T12:37:41;2.75;;;0.88;;
49177;SDS011;35016;55.674;37.468;2023-04-21T12:40:10;3.78;;;1.00;;
49177;SDS011;35016;55.674;37.468;2023-04-21T12:42:37;3.67;;;1.38;;
49177;SDS011;35016;55.674;37.468;2023-04-21T12:45:04;6.10;;;1.55;;
49177;SDS011;35016;55.674;37.468;2023-04-21T12:47:32;4.75;;;1.35;;
49177;SDS011;35016;55.674;37.468;2023-04-21T12:50:00;7.60;;;1.30;;
49177;SDS011;35016;55.674;37.468;2023-04-21T12:52:29;5.10;;;1.33;;
49177;SDS011;35016;55.674;37.468;2023-04-21T12:54:56;5.18;;;1.67;;
49177;SDS011;35016;55.674;37.468;2023-04-21T12:57:23;5.75;;;1.35;;
49177;SDS011;35016;55.674;37.468;2023-04-21T12:59:49;5.22;;;1.10;;
49177;SDS011;35016;55.674;37.468;2023-04-21T13:02:17;5.82;;;1.88;;
49177;SDS011;35016;55.674;37.468;2023-04-21T13:04:44;3.78;;;1.55;;
49177;SDS011;35016;55.674;37.468;2023-04-21T13:07:11;4.40;;;1.20;;
49177;SDS011;35016;55.674;37.468;2023-04-21T13:09:39;7.22;;;1.20;;
49177;SDS011;35016;55.674;37.468;2023-04-21T13:12:06;5.80;;;1.42;;
49177;SDS011;35016;55.674;37.468;2023-04-21T13:14:33;4.88;;;1.50;;
49177;SDS011;35016;55.674;37.468;2023-04-21T13:17:00;4.07;;;1.35;;
49177;SDS011;35016;55.674;37.468;2023-04-21T13:19:27;4.18;;;1.33;;
49177;SDS011;35016;55.674;37.468;2023-04-21T13:21:55;3.67;;;1.10;;
49177;SDS011;35016;55.674;37.468;2023-04-21T13:24:22;5.00;;;1.48;;
49177;SDS011;35016;55.674;37.468;2023-04-21T13:26:51;4.00;;;1.38;;
49177;SDS011;35016;55.674;37.468;2023-04-21T13:29:18;4.80;;;1.42;;
49177;SDS011;35016;55.674;37.468;2023-04-21T13:31:45;7.65;;;2.47;;
49177;SDS011;35016;55.674;37.468;2023-04-21T13:34:13;4.40;;;1.02;;
49177;SDS011;35016;55.674;37.468;2023-04-21T13:36:40;4.90;;;1.30;;
49177;SDS011;35016;55.674;37.468;2023-04-21T13:39:10;10.38;;;2.35;;
49177;SDS011;35016;55.674;37.468;2023-04-21T13:41:37;3.17;;;1.27;;
49177;SDS011;35016;55.674;37.468;2023-04-21T13:44:04;4.20;;;1.27;;
49177;SDS011;35016;55.674;37.468;2023-04-21T13:46:32;6.28;;;1.65;;
49177;SDS011;35016;55.674;37.468;2023-04-21T13:48:59;8.82;;;3.10;;
49177;SDS011;35016;55.674;37.468;2023-04-21T13:51:26;5.97;;;1.77;;
49177;SDS011;35016;55.674;37.468;2023-04-21T13:53:53;4.68;;;1.50;;
49177;SDS011;35016;55.674;37.468;2023-04-21T13:56:21;4.78;;;1.40;;
49177;SDS011;35016;55.674;37.468;2023-04-21T13:58:48;4.63;;;1.80;;
49177;SDS011;35016;55.674;37.468;2023-04-21T14:01:15;3.10;;;1.02;;
49177;SDS011;35016;55.674;37.468;2023-04-21T14:03:46;4.45;;;1.60;;
49177;SDS011;35016;55.674;37.468;2023-04-21T14:06:13;3.13;;;1.00;;
49177;SDS011;35016;55.674;37.468;2023-04-21T14:08:42;6.45;;;1.70;;
49177;SDS011;35016;55.674;37.468;2023-04-21T14:11:11;3.13;;;1.20;;
49177;SDS011;35016;55.674;37.468;2023-04-21T14:13:38;4.13;;;1.25;;
49177;SDS011;35016;55.674;37.468;2023-04-21T14:16:25;5.50;;;1.52;;
49177;SDS011;35016;55.674;37.468;2023-04-21T14:18:52;6.03;;;1.60;;
49177;SDS011;35016;55.674;37.468;2023-04-21T14:21:19;4.68;;;1.65;;
49177;SDS011;35016;55.674;37.468;2023-04-21T14:23:46;3.45;;;1.15;;
49177;SDS011;35016;55.674;37.468;2023-04-21T14:26:13;5.07;;;1.50;;
49177;SDS011;35016;55.674;37.468;2023-04-21T14:28:41;4.22;;;1.42;;
49177;SDS011;35016;55.674;37.468;2023-04-21T14:31:08;4.65;;;1.23;;
49177;SDS011;35016;55.674;37.468;2023-04-21T14:33:35;5.28;;;1.77;;
49177;SDS011;35016;55.674;37.468;2023-04-21T14:36:02;5.95;;;1.75;;
49177;SDS011;35016;55.674;37.468;2023-04-21T14:38:29;4.03;;;1.30;;
49177;SDS011;35016;55.674;37.468;2023-04-21T14:40:56;5.07;;;1.98;;
49177;SDS011;35016;55.674;37.468;2023-04-21T14:43:23;4.35;;;1.25;;
49177;SDS011;35016;55.674;37.468;2023-04-21T14:45:51;4.18;;;1.30;;
49177;SDS011;35016;55.674;37.468;2023-04-21T14:48:19;6.07;;;1.52;;
49177;SDS011;35016;55.674;37.468;2023-04-21T14:50:46;3.72;;;1.30;;
49177;SDS011;35016;55.674;37.468;2023-04-21T14:53:13;5.13;;;1.40;;